Terminal Aerodrome Forecast
Issued by NWS

Current Version | Previous Version | Graphics & Text | Print | Product List | Glossary On
Versions: 1 2 3 4 5 6 7 8 9 10 11 12 13 14 15 16 17 18 19 20
000
FTUS41 KPBZ 301242 AAE
TAFMGW
TAF AMD
KMGW 301242Z 3013/3112 22004KT 5SM BR BKN015
     FM301330 29005KT P6SM BKN040
     FM301600 29010KT P6SM SCT050=

USA.gov is the U.S. government's official web portal to all federal, state and local government web resources and services.